Derby, United Kingdom
Current Conditions -  °F | °C
As of 4:50 PM on Thursday 23 Oct 2014 (Local Time) from EGNX Reporting Station
Broken Clouds Broken Clouds  
Wind Chill: 59°   Ceiling: 1500
Heat Index: 59°   Visibility: 6mi
Dew Point: 54°   Wind: 15mph
Humidity: 82%   Direction: 210°SSW
Pressure: 29.94"   Gusts: NA
Location:  52.92°N, 1.48°W
Report Text: EGNX 231550Z 21013KT 9999 BKN015 15/12 Q1014
Loading
Personal Weather Stations






























Interactive Weather Map
Tropical Storm Tracking
New forecast layout! Learn more

10-Day Weather Forecast

Advertisements
Track Severe Weather on mobile